sensor_id;sensor_type;location;lat;lon;timestamp;pressure;altitude;pressure_sealevel;temperature;humidity
59767;BME280;46248;58.364;25.582;2022-12-18T00:00:08;101847.41;;;-13.59;83.82
59767;BME280;46248;58.364;25.582;2022-12-18T00:03:29;101852.56;;;-13.58;83.70
59767;BME280;46248;58.364;25.582;2022-12-18T00:06:51;101826.69;;;-13.80;83.50
59767;BME280;46248;58.364;25.582;2022-12-18T00:10:14;101862.69;;;-13.70;83.30
59767;BME280;46248;58.364;25.582;2022-12-18T00:13:36;101859.97;;;-13.73;83.37
59767;BME280;46248;58.364;25.582;2022-12-18T00:16:59;101862.16;;;-13.77;83.01
59767;BME280;46248;58.364;25.582;2022-12-18T00:20:22;101853.19;;;-13.86;83.29
59767;BME280;46248;58.364;25.582;2022-12-18T00:23:47;101846.00;;;-13.93;83.63
59767;BME280;46248;58.364;25.582;2022-12-18T00:27:09;101855.97;;;-13.94;82.79
59767;BME280;46248;58.364;25.582;2022-12-18T00:30:31;101854.66;;;-14.01;83.16
59767;BME280;46248;58.364;25.582;2022-12-18T00:33:55;101857.09;;;-14.02;83.56
59767;BME280;46248;58.364;25.582;2022-12-18T00:37:17;101851.41;;;-14.12;84.12
59767;BME280;46248;58.364;25.582;2022-12-18T00:40:41;101866.16;;;-14.04;83.18
59767;BME280;46248;58.364;25.582;2022-12-18T00:44:05;101860.03;;;-14.08;83.46
59767;BME280;46248;58.364;25.582;2022-12-18T00:47:25;101849.78;;;-14.11;83.08
59767;BME280;46248;58.364;25.582;2022-12-18T00:50:49;101864.00;;;-14.12;83.14
59767;BME280;46248;58.364;25.582;2022-12-18T00:54:12;101851.78;;;-14.19;82.61
59767;BME280;46248;58.364;25.582;2022-12-18T00:57:33;101839.28;;;-14.29;81.34
59767;BME280;46248;58.364;25.582;2022-12-18T01:00:55;101843.34;;;-14.31;82.42
59767;BME280;46248;58.364;25.582;2022-12-18T01:04:18;101827.59;;;-14.40;82.69
59767;BME280;46248;58.364;25.582;2022-12-18T01:07:41;101825.66;;;-14.44;82.65
59767;BME280;46248;58.364;25.582;2022-12-18T01:11:07;101835.72;;;-14.44;82.94
59767;BME280;46248;58.364;25.582;2022-12-18T01:14:29;101849.94;;;-14.45;82.75
59767;BME280;46248;58.364;25.582;2022-12-18T01:17:51;101860.66;;;-14.47;82.99
59767;BME280;46248;58.364;25.582;2022-12-18T01:21:16;101832.38;;;-14.68;82.53
59767;BME280;46248;58.364;25.582;2022-12-18T01:24:39;101859.38;;;-14.54;82.78
59767;BME280;46248;58.364;25.582;2022-12-18T01:28:01;101842.44;;;-14.57;82.75
59767;BME280;46248;58.364;25.582;2022-12-18T01:31:25;101859.47;;;-14.52;82.81
59767;BME280;46248;58.364;25.582;2022-12-18T01:34:47;101852.47;;;-14.57;82.14
59767;BME280;46248;58.364;25.582;2022-12-18T01:38:09;101843.06;;;-14.71;81.67
59767;BME280;46248;58.364;25.582;2022-12-18T01:41:34;101849.44;;;-14.76;81.65
59767;BME280;46248;58.364;25.582;2022-12-18T01:45:23;101851.28;;;-14.85;81.18
59767;BME280;46248;58.364;25.582;2022-12-18T01:48:48;101850.63;;;-14.94;80.20
59767;BME280;46248;58.364;25.582;2022-12-18T01:52:11;101845.34;;;-14.97;80.84
59767;BME280;46248;58.364;25.582;2022-12-18T01:55:38;101849.41;;;-14.99;81.57
59767;BME280;46248;58.364;25.582;2022-12-18T01:59:05;101840.13;;;-15.12;81.19
59767;BME280;46248;58.364;25.582;2022-12-18T02:02:30;101861.41;;;-15.07;82.04
59767;BME280;46248;58.364;25.582;2022-12-18T02:05:59;101861.53;;;-15.06;81.17
59767;BME280;46248;58.364;25.582;2022-12-18T02:09:28;101864.03;;;-15.06;82.46
59767;BME280;46248;58.364;25.582;2022-12-18T02:12:57;101859.00;;;-15.06;81.63
59767;BME280;46248;58.364;25.582;2022-12-18T02:16:25;101862.16;;;-15.08;82.50
59767;BME280;46248;58.364;25.582;2022-12-18T02:20:04;101860.06;;;-15.14;81.02
59767;BME280;46248;58.364;25.582;2022-12-18T02:23:42;101868.03;;;-15.19;81.25
59767;BME280;46248;58.364;25.582;2022-12-18T02:27:10;101848.13;;;-15.28;81.70
59767;BME280;46248;58.364;25.582;2022-12-18T02:30:33;101824.59;;;-15.52;80.67
59767;BME280;46248;58.364;25.582;2022-12-18T02:33:59;101853.34;;;-15.37;79.95
59767;BME280;46248;58.364;25.582;2022-12-18T02:37:23;101848.88;;;-15.41;81.68
59767;BME280;46248;58.364;25.582;2022-12-18T02:40:48;101859.03;;;-15.39;80.32
59767;BME280;46248;58.364;25.582;2022-12-18T02:44:13;101851.38;;;-15.41;80.73
59767;BME280;46248;58.364;25.582;2022-12-18T02:47:38;101847.53;;;-15.48;80.25
59767;BME280;46248;58.364;25.582;2022-12-18T02:51:04;101837.03;;;-15.54;80.04
59767;BME280;46248;58.364;25.582;2022-12-18T02:54:41;101833.31;;;-15.59;80.23
59767;BME280;46248;58.364;25.582;2022-12-18T02:58:12;101838.09;;;-15.62;80.38
59767;BME280;46248;58.364;25.582;2022-12-18T03:01:43;101840.38;;;-15.65;80.77
59767;BME280;46248;58.364;25.582;2022-12-18T03:05:12;101839.31;;;-15.68;81.07
59767;BME280;46248;58.364;25.582;2022-12-18T03:08:38;101829.59;;;-15.76;80.74
59767;BME280;46248;58.364;25.582;2022-12-18T03:12:07;101841.47;;;-15.73;80.71
59767;BME280;46248;58.364;25.582;2022-12-18T03:15:48;101843.09;;;-15.74;81.28
59767;BME280;46248;58.364;25.582;2022-12-18T03:19:15;101843.34;;;-15.71;81.28
59767;BME280;46248;58.364;25.582;2022-12-18T03:22:38;101835.97;;;-15.79;81.12
59767;BME280;46248;58.364;25.582;2022-12-18T03:26:04;101833.06;;;-15.74;81.13
59767;BME280;46248;58.364;25.582;2022-12-18T03:29:32;101824.84;;;-15.83;81.25
59767;BME280;46248;58.364;25.582;2022-12-18T03:33:00;101831.28;;;-15.86;80.67
59767;BME280;46248;58.364;25.582;2022-12-18T03:36:26;101838.94;;;-15.85;80.81
59767;BME280;46248;58.364;25.582;2022-12-18T03:39:48;101835.66;;;-15.84;82.03
59767;BME280;46248;58.364;25.582;2022-12-18T03:43:16;101828.75;;;-15.86;81.03
59767;BME280;46248;58.364;25.582;2022-12-18T03:46:43;101834.00;;;-15.83;82.17
59767;BME280;46248;58.364;25.582;2022-12-18T03:50:12;101839.41;;;-15.79;81.95
59767;BME280;46248;58.364;25.582;2022-12-18T03:53:40;101840.50;;;-15.75;81.40
59767;BME280;46248;58.364;25.582;2022-12-18T03:57:10;101840.50;;;-15.75;83.22
59767;BME280;46248;58.364;25.582;2022-12-18T04:00:33;101841.38;;;-15.63;83.92
59767;BME280;46248;58.364;25.582;2022-12-18T04:03:56;101842.72;;;-15.56;84.13
59767;BME280;46248;58.364;25.582;2022-12-18T04:07:20;101835.75;;;-15.49;84.48
59767;BME280;46248;58.364;25.582;2022-12-18T04:10:44;101835.66;;;-15.38;84.07
59767;BME280;46248;58.364;25.582;2022-12-18T04:14:06;101837.00;;;-15.32;84.85
59767;BME280;46248;58.364;25.582;2022-12-18T04:17:33;101836.56;;;-15.26;84.25
59767;BME280;46248;58.364;25.582;2022-12-18T04:20:55;101832.66;;;-15.23;84.39
59767;BME280;46248;58.364;25.582;2022-12-18T04:24:17;101816.59;;;-15.25;84.41
59767;BME280;46248;58.364;25.582;2022-12-18T04:27:40;101826.66;;;-15.13;85.25
59767;BME280;46248;58.364;25.582;2022-12-18T04:31:03;101844.03;;;-15.04;85.12
59767;BME280;46248;58.364;25.582;2022-12-18T04:34:25;101842.19;;;-14.95;84.89
59767;BME280;46248;58.364;25.582;2022-12-18T04:37:47;101832.69;;;-14.87;85.50
59767;BME280;46248;58.364;25.582;2022-12-18T04:41:09;101839.59;;;-14.73;87.19
59767;BME280;46248;58.364;25.582;2022-12-18T04:44:32;101837.84;;;-14.62;87.18
59767;BME280;46248;58.364;25.582;2022-12-18T04:47:56;101839.34;;;-14.52;86.37
59767;BME280;46248;58.364;25.582;2022-12-18T04:51:18;101829.81;;;-14.45;87.15
59767;BME280;46248;58.364;25.582;2022-12-18T04:54:46;101792.78;;;-14.59;86.76
59767;BME280;46248;58.364;25.582;2022-12-18T04:58:08;101823.56;;;-14.38;86.87
59767;BME280;46248;58.364;25.582;2022-12-18T05:01:33;101826.63;;;-14.31;87.09
59767;BME280;46248;58.364;25.582;2022-12-18T05:04:55;101836.44;;;-14.22;87.55
59767;BME280;46248;58.364;25.582;2022-12-18T05:08:17;101838.50;;;-14.16;87.80
59767;BME280;46248;58.364;25.582;2022-12-18T05:11:39;101832.16;;;-14.11;88.64
59767;BME280;46248;58.364;25.582;2022-12-18T05:15:03;101836.75;;;-14.05;88.76
59767;BME280;46248;58.364;25.582;2022-12-18T05:18:26;101834.72;;;-13.98;88.63
59767;BME280;46248;58.364;25.582;2022-12-18T05:21:48;101827.31;;;-13.96;88.87
59767;BME280;46248;58.364;25.582;2022-12-18T05:25:10;101836.56;;;-13.83;88.92
59767;BME280;46248;58.364;25.582;2022-12-18T05:28:33;101836.97;;;-13.77;89.25
59767;BME280;46248;58.364;25.582;2022-12-18T05:31:55;101838.38;;;-13.69;89.97
59767;BME280;46248;58.364;25.582;2022-12-18T05:35:19;101836.34;;;-13.62;89.89
59767;BME280;46248;58.364;25.582;2022-12-18T05:38:41;101829.13;;;-13.57;90.10
59767;BME280;46248;58.364;25.582;2022-12-18T05:42:03;101832.13;;;-13.49;91.33
59767;BME280;46248;58.364;25.582;2022-12-18T05:45:24;101830.81;;;-13.44;90.65
59767;BME280;46248;58.364;25.582;2022-12-18T05:48:47;101832.06;;;-13.38;91.33
59767;BME280;46248;58.364;25.582;2022-12-18T05:52:15;101831.06;;;-13.28;91.91
59767;BME280;46248;58.364;25.582;2022-12-18T05:55:39;101817.16;;;-13.21;91.68
59767;BME280;46248;58.364;25.582;2022-12-18T05:59:01;101824.66;;;-13.09;91.88
59767;BME280;46248;58.364;25.582;2022-12-18T06:02:23;101832.72;;;-13.02;92.05
59767;BME280;46248;58.364;25.582;2022-12-18T06:05:45;101838.34;;;-12.93;92.44
59767;BME280;46248;58.364;25.582;2022-12-18T06:09:08;101845.44;;;-12.87;93.41
59767;BME280;46248;58.364;25.582;2022-12-18T06:12:30;101845.94;;;-12.79;93.33
59767;BME280;46248;58.364;25.582;2022-12-18T06:15:54;101843.13;;;-12.71;93.39
59767;BME280;46248;58.364;25.582;2022-12-18T06:19:15;101837.50;;;-12.66;93.49
59767;BME280;46248;58.364;25.582;2022-12-18T06:22:37;101838.94;;;-12.57;93.48
59767;BME280;46248;58.364;25.582;2022-12-18T06:26:06;101851.16;;;-12.50;93.83
59767;BME280;46248;58.364;25.582;2022-12-18T06:29:28;101839.81;;;-12.43;93.55
59767;BME280;46248;58.364;25.582;2022-12-18T06:32:50;101839.50;;;-12.34;94.21
59767;BME280;46248;58.364;25.582;2022-12-18T06:36:16;101842.50;;;-12.27;94.20
59767;BME280;46248;58.364;25.582;2022-12-18T06:39:38;101844.44;;;-12.23;94.24
59767;BME280;46248;58.364;25.582;2022-12-18T06:43:01;101848.31;;;-12.14;94.17
59767;BME280;46248;58.364;25.582;2022-12-18T06:46:23;101846.16;;;-12.08;94.45
59767;BME280;46248;58.364;25.582;2022-12-18T06:49:45;101816.84;;;-12.19;95.08
59767;BME280;46248;58.364;25.582;2022-12-18T06:53:09;101835.84;;;-11.98;95.06
59767;BME280;46248;58.364;25.582;2022-12-18T06:56:31;101859.50;;;-11.83;94.96
59767;BME280;46248;58.364;25.582;2022-12-18T06:59:54;101855.88;;;-11.73;95.95
59767;BME280;46248;58.364;25.582;2022-12-18T07:03:16;101858.84;;;-11.65;95.23
59767;BME280;46248;58.364;25.582;2022-12-18T07:06:38;101844.53;;;-11.65;95.29
59767;BME280;46248;58.364;25.582;2022-12-18T07:10:00;101866.47;;;-11.50;95.18
59767;BME280;46248;58.364;25.582;2022-12-18T07:13:22;101863.53;;;-11.43;95.38
59767;BME280;46248;58.364;25.582;2022-12-18T07:16:45;101852.13;;;-11.37;95.54
59767;BME280;46248;58.364;25.582;2022-12-18T07:20:09;101851.88;;;-11.26;94.86
59767;BME280;46248;58.364;25.582;2022-12-18T07:23:31;101846.28;;;-11.21;95.15
59767;BME280;46248;58.364;25.582;2022-12-18T07:26:53;101844.28;;;-11.12;95.21
59767;BME280;46248;58.364;25.582;2022-12-18T07:30:15;101841.78;;;-11.12;94.87
59767;BME280;46248;58.364;25.582;2022-12-18T07:33:38;101845.09;;;-10.98;95.05
59767;BME280;46248;58.364;25.582;2022-12-18T07:37:01;101855.81;;;-10.87;95.18
59767;BME280;46248;58.364;25.582;2022-12-18T07:40:23;101851.91;;;-10.82;95.49
59767;BME280;46248;58.364;25.582;2022-12-18T07:43:46;101847.25;;;-10.74;95.98
59767;BME280;46248;58.364;25.582;2022-12-18T07:47:07;101857.47;;;-10.58;96.67
59767;BME280;46248;58.364;25.582;2022-12-18T07:50:33;101851.13;;;-10.50;96.63
59767;BME280;46248;58.364;25.582;2022-12-18T07:53:55;101842.25;;;-10.43;96.23
59767;BME280;46248;58.364;25.582;2022-12-18T07:57:18;101859.03;;;-10.29;96.09
59767;BME280;46248;58.364;25.582;2022-12-18T08:01:04;101837.63;;;-10.19;96.81
59767;BME280;46248;58.364;25.582;2022-12-18T08:04:26;101824.22;;;-10.17;96.63
59767;BME280;46248;58.364;25.582;2022-12-18T08:07:49;101848.03;;;-9.98;96.44
59767;BME280;46248;58.364;25.582;2022-12-18T08:11:11;101835.91;;;-9.87;97.00
59767;BME280;46248;58.364;25.582;2022-12-18T08:14:33;101835.84;;;-9.73;96.40
59767;BME280;46248;58.364;25.582;2022-12-18T08:17:56;101822.38;;;-9.72;97.06
59767;BME280;46248;58.364;25.582;2022-12-18T08:21:19;101844.72;;;-9.48;97.35
59767;BME280;46248;58.364;25.582;2022-12-18T08:24:44;101842.72;;;-9.37;97.07
59767;BME280;46248;58.364;25.582;2022-12-18T08:28:06;101846.50;;;-9.29;96.77
59767;BME280;46248;58.364;25.582;2022-12-18T08:31:28;101848.63;;;-9.20;96.50
59767;BME280;46248;58.364;25.582;2022-12-18T08:34:53;101846.41;;;-9.14;96.42
59767;BME280;46248;58.364;25.582;2022-12-18T08:38:15;101853.69;;;-9.04;96.31
59767;BME280;46248;58.364;25.582;2022-12-18T08:41:39;101847.41;;;-8.94;96.73
59767;BME280;46248;58.364;25.582;2022-12-18T08:45:00;101846.19;;;-8.85;97.13
59767;BME280;46248;58.364;25.582;2022-12-18T08:48:21;101842.41;;;-8.75;96.86
59767;BME280;46248;58.364;25.582;2022-12-18T08:51:43;101847.06;;;-8.66;97.39
59767;BME280;46248;58.364;25.582;2022-12-18T08:55:06;101845.78;;;-8.58;96.89
59767;BME280;46248;58.364;25.582;2022-12-18T08:58:30;101842.81;;;-8.49;97.37
59767;BME280;46248;58.364;25.582;2022-12-18T09:01:53;101847.38;;;-8.42;97.08
59767;BME280;46248;58.364;25.582;2022-12-18T09:05:15;101831.41;;;-8.40;96.94
59767;BME280;46248;58.364;25.582;2022-12-18T09:08:37;101836.16;;;-8.28;96.62
59767;BME280;46248;58.364;25.582;2022-12-18T09:12:00;101830.34;;;-8.25;96.44
59767;BME280;46248;58.364;25.582;2022-12-18T09:15:22;101840.94;;;-8.16;96.32
59767;BME280;46248;58.364;25.582;2022-12-18T09:18:44;101822.47;;;-8.12;96.67
59767;BME280;46248;58.364;25.582;2022-12-18T09:22:06;101826.44;;;-7.99;96.72
59767;BME280;46248;58.364;25.582;2022-12-18T09:25:29;101826.78;;;-7.92;96.71
59767;BME280;46248;58.364;25.582;2022-12-18T09:28:53;101821.38;;;-7.80;96.80
59767;BME280;46248;58.364;25.582;2022-12-18T09:32:17;101816.69;;;-7.71;96.38
59767;BME280;46248;58.364;25.582;2022-12-18T09:35:43;101818.66;;;-7.65;96.81
59767;BME280;46248;58.364;25.582;2022-12-18T09:39:05;101824.91;;;-7.57;97.02
59767;BME280;46248;58.364;25.582;2022-12-18T09:42:28;101822.16;;;-7.42;97.22
59767;BME280;46248;58.364;25.582;2022-12-18T09:45:53;101807.03;;;-7.39;97.04
59767;BME280;46248;58.364;25.582;2022-12-18T09:49:21;101814.31;;;-7.27;96.48
59767;BME280;46248;58.364;25.582;2022-12-18T09:52:47;101823.94;;;-7.20;96.08
59767;BME280;46248;58.364;25.582;2022-12-18T09:56:15;101805.38;;;-7.18;96.09
59767;BME280;46248;58.364;25.582;2022-12-18T09:59:38;101798.84;;;-7.11;96.79
59767;BME280;46248;58.364;25.582;2022-12-18T10:03:08;101802.72;;;-7.00;96.74
59767;BME280;46248;58.364;25.582;2022-12-18T10:06:36;101801.53;;;-6.87;96.82
59767;BME280;46248;58.364;25.582;2022-12-18T10:10:06;101792.59;;;-6.77;97.03
59767;BME280;46248;58.364;25.582;2022-12-18T10:13:33;101792.22;;;-6.65;97.39
59767;BME280;46248;58.364;25.582;2022-12-18T10:17:04;101790.81;;;-6.57;97.42
59767;BME280;46248;58.364;25.582;2022-12-18T10:20:32;101794.66;;;-6.46;97.01
59767;BME280;46248;58.364;25.582;2022-12-18T10:24:12;101799.38;;;-6.34;97.58
59767;BME280;46248;58.364;25.582;2022-12-18T10:27:36;101793.00;;;-6.23;98.80
59767;BME280;46248;58.364;25.582;2022-12-18T10:30:58;101791.03;;;-6.08;98.57
59767;BME280;46248;58.364;25.582;2022-12-18T10:34:20;101786.38;;;-5.95;99.29
59767;BME280;46248;58.364;25.582;2022-12-18T10:37:59;101783.28;;;-5.85;99.28
59767;BME280;46248;58.364;25.582;2022-12-18T10:41:25;101776.06;;;-5.73;99.34
59767;BME280;46248;58.364;25.582;2022-12-18T10:45:01;101769.47;;;-5.68;99.36
59767;BME280;46248;58.364;25.582;2022-12-18T10:48:23;101758.38;;;-5.68;99.13
59767;BME280;46248;58.364;25.582;2022-12-18T10:51:45;101766.50;;;-5.55;99.11
59767;BME280;46248;58.364;25.582;2022-12-18T10:55:16;101752.88;;;-5.55;100.00
59767;BME280;46248;58.364;25.582;2022-12-18T10:58:55;101753.94;;;-5.48;99.27
59767;BME280;46248;58.364;25.582;2022-12-18T11:02:26;101768.81;;;-5.37;99.22
59767;BME280;46248;58.364;25.582;2022-12-18T11:06:04;101765.72;;;-5.28;99.54
59767;BME280;46248;58.364;25.582;2022-12-18T11:09:27;101764.38;;;-5.17;99.22
59767;BME280;46248;58.364;25.582;2022-12-18T11:12:49;101763.72;;;-5.11;99.95
59767;BME280;46248;58.364;25.582;2022-12-18T11:16:19;101760.34;;;-5.10;99.90
59767;BME280;46248;58.364;25.582;2022-12-18T11:19:41;101766.47;;;-5.05;99.82
59767;BME280;46248;58.364;25.582;2022-12-18T11:23:04;101755.56;;;-4.99;99.87
59767;BME280;46248;58.364;25.582;2022-12-18T11:26:33;101751.38;;;-4.97;100.00
59767;BME280;46248;58.364;25.582;2022-12-18T11:30:08;101756.78;;;-4.88;100.00
59767;BME280;46248;58.364;25.582;2022-12-18T11:33:32;101750.81;;;-4.89;99.84
59767;BME280;46248;58.364;25.582;2022-12-18T11:36:54;101730.38;;;-4.89;100.00
59767;BME280;46248;58.364;25.582;2022-12-18T11:40:19;101739.91;;;-4.83;100.00
59767;BME280;46248;58.364;25.582;2022-12-18T11:43:47;101741.94;;;-4.73;100.00
59767;BME280;46248;58.364;25.582;2022-12-18T11:47:19;101744.53;;;-4.71;99.64
59767;BME280;46248;58.364;25.582;2022-12-18T11:50:48;101724.69;;;-4.80;99.54
59767;BME280;46248;58.364;25.582;2022-12-18T11:54:12;101734.22;;;-4.74;99.08
59767;BME280;46248;58.364;25.582;2022-12-18T11:57:39;101732.53;;;-4.74;98.80
59767;BME280;46248;58.364;25.582;2022-12-18T12:01:13;101730.94;;;-4.70;99.49
59767;BME280;46248;58.364;25.582;2022-12-18T12:04:50;101719.03;;;-4.70;99.52
59767;BME280;46248;58.364;25.582;2022-12-18T12:08:22;101726.84;;;-4.65;99.49
59767;BME280;46248;58.364;25.582;2022-12-18T12:11:58;101722.53;;;-4.66;100.00
59767;BME280;46248;58.364;25.582;2022-12-18T12:15:28;101721.94;;;-4.57;100.00
59767;BME280;46248;58.364;25.582;2022-12-18T12:19:05;101719.56;;;-4.51;100.00
59767;BME280;46248;58.364;25.582;2022-12-18T12:22:34;101718.09;;;-4.45;100.00
59767;BME280;46248;58.364;25.582;2022-12-18T12:26:04;101724.25;;;-4.37;100.00
59767;BME280;46248;58.364;25.582;2022-12-18T12:29:37;101721.03;;;-4.31;100.00
59767;BME280;46248;58.364;25.582;2022-12-18T12:33:12;101722.75;;;-4.30;100.00
59767;BME280;46248;58.364;25.582;2022-12-18T12:36:49;101703.72;;;-4.40;100.00
59767;BME280;46248;58.364;25.582;2022-12-18T12:40:15;101711.81;;;-4.26;100.00
59767;BME280;46248;58.364;25.582;2022-12-18T12:44:02;101710.03;;;-4.27;100.00
59767;BME280;46248;58.364;25.582;2022-12-18T12:47:29;101698.78;;;-4.33;100.00
59767;BME280;46248;58.364;25.582;2022-12-18T12:50:55;101710.13;;;-4.24;100.00
59767;BME280;46248;58.364;25.582;2022-12-18T12:54:22;101710.94;;;-4.26;100.00
59767;BME280;46248;58.364;25.582;2022-12-18T12:57:48;101724.63;;;-4.24;100.00
59767;BME280;46248;58.364;25.582;2022-12-18T13:01:22;101716.81;;;-4.29;100.00
59767;BME280;46248;58.364;25.582;2022-12-18T13:04:52;101709.06;;;-4.32;100.00
59767;BME280;46248;58.364;25.582;2022-12-18T13:08:25;101719.38;;;-4.29;100.00
59767;BME280;46248;58.364;25.582;2022-12-18T13:11:52;101718.53;;;-4.29;100.00
59767;BME280;46248;58.364;25.582;2022-12-18T13:15:36;101709.16;;;-4.29;100.00
59767;BME280;46248;58.364;25.582;2022-12-18T13:19:01;101709.25;;;-4.26;100.00
59767;BME280;46248;58.364;25.582;2022-12-18T13:22:34;101699.00;;;-4.26;100.00
59767;BME280;46248;58.364;25.582;2022-12-18T13:25:57;101706.72;;;-4.24;100.00
59767;BME280;46248;58.364;25.582;2022-12-18T13:29:41;101694.84;;;-4.22;100.00
59767;BME280;46248;58.364;25.582;2022-12-18T13:37:43;101691.63;;;-4.15;100.00
59767;BME280;46248;58.364;25.582;2022-12-18T13:41:22;101677.19;;;-4.13;100.00
59767;BME280;46248;58.364;25.582;2022-12-18T13:44:46;101667.75;;;-4.16;100.00
59767;BME280;46248;58.364;25.582;2022-12-18T13:48:22;101668.78;;;-4.09;100.00
59767;BME280;46248;58.364;25.582;2022-12-18T13:51:48;101676.59;;;-4.04;100.00
59767;BME280;46248;58.364;25.582;2022-12-18T13:55:17;101673.19;;;-4.03;100.00
59767;BME280;46248;58.364;25.582;2022-12-18T13:58:40;101667.38;;;-3.98;100.00
59767;BME280;46248;58.364;25.582;2022-12-18T14:02:13;101665.59;;;-4.00;100.00
59767;BME280;46248;58.364;25.582;2022-12-18T14:05:36;101670.09;;;-3.92;100.00
59767;BME280;46248;58.364;25.582;2022-12-18T14:09:03;101667.53;;;-3.92;100.00
59767;BME280;46248;58.364;25.582;2022-12-18T14:12:31;101665.06;;;-3.88;100.00
59767;BME280;46248;58.364;25.582;2022-12-18T14:16:14;101670.34;;;-3.82;100.00
59767;BME280;46248;58.364;25.582;2022-12-18T14:19:36;101652.47;;;-3.81;100.00
59767;BME280;46248;58.364;25.582;2022-12-18T14:22:59;101658.63;;;-3.73;100.00
59767;BME280;46248;58.364;25.582;2022-12-18T14:26:24;101667.38;;;-3.64;100.00
59767;BME280;46248;58.364;25.582;2022-12-18T14:29:50;101659.00;;;-3.57;100.00
59767;BME280;46248;58.364;25.582;2022-12-18T14:33:14;101659.97;;;-3.54;100.00
59767;BME280;46248;58.364;25.582;2022-12-18T14:36:38;101657.59;;;-3.46;100.00
59767;BME280;46248;58.364;25.582;2022-12-18T14:40:04;101659.44;;;-3.40;100.00
59767;BME280;46248;58.364;25.582;2022-12-18T14:43:33;101664.72;;;-3.34;100.00
59767;BME280;46248;58.364;25.582;2022-12-18T14:46:59;101658.00;;;-3.29;100.00
59767;BME280;46248;58.364;25.582;2022-12-18T14:50:21;101668.41;;;-3.23;100.00
59767;BME280;46248;58.364;25.582;2022-12-18T14:53:47;101647.94;;;-3.22;100.00
59767;BME280;46248;58.364;25.582;2022-12-18T14:57:20;101648.97;;;-3.13;100.00
59767;BME280;46248;58.364;25.582;2022-12-18T15:00:42;101639.56;;;-3.14;100.00
59767;BME280;46248;58.364;25.582;2022-12-18T15:04:26;101644.84;;;-3.08;100.00
59767;BME280;46248;58.364;25.582;2022-12-18T15:07:50;101650.84;;;-3.06;100.00
59767;BME280;46248;58.364;25.582;2022-12-18T15:11:45;101644.91;;;-3.04;100.00
59767;BME280;46248;58.364;25.582;2022-12-18T15:19:02;101638.94;;;-3.03;100.00
59767;BME280;46248;58.364;25.582;2022-12-18T15:22:27;101639.84;;;-3.02;100.00
59767;BME280;46248;58.364;25.582;2022-12-18T15:25:55;101643.19;;;-3.05;100.00
59767;BME280;46248;58.364;25.582;2022-12-18T15:29:20;101631.28;;;-3.03;100.00
59767;BME280;46248;58.364;25.582;2022-12-18T15:32:42;101637.31;;;-3.01;100.00
59767;BME280;46248;58.364;25.582;2022-12-18T15:36:09;101631.25;;;-3.04;100.00
59767;BME280;46248;58.364;25.582;2022-12-18T15:39:33;101633.91;;;-3.00;100.00
59767;BME280;46248;58.364;25.582;2022-12-18T15:42:56;101629.66;;;-2.99;100.00
59767;BME280;46248;58.364;25.582;2022-12-18T15:46:36;101629.69;;;-2.97;100.00
59767;BME280;46248;58.364;25.582;2022-12-18T15:49:58;101634.00;;;-2.95;100.00
59767;BME280;46248;58.364;25.582;2022-12-18T15:53:20;101636.63;;;-2.93;100.00
59767;BME280;46248;58.364;25.582;2022-12-18T15:56:43;101611.75;;;-2.97;100.00
59767;BME280;46248;58.364;25.582;2022-12-18T16:00:23;101615.28;;;-2.91;100.00
59767;BME280;46248;58.364;25.582;2022-12-18T16:03:44;101611.00;;;-2.92;100.00
59767;BME280;46248;58.364;25.582;2022-12-18T16:07:08;101596.41;;;-2.96;100.00
59767;BME280;46248;58.364;25.582;2022-12-18T16:10:41;101603.50;;;-2.84;100.00
59767;BME280;46248;58.364;25.582;2022-12-18T16:14:05;101598.44;;;-2.81;100.00
59767;BME280;46248;58.364;25.582;2022-12-18T16:17:27;101600.22;;;-2.77;100.00
59767;BME280;46248;58.364;25.582;2022-12-18T16:20:49;101594.31;;;-2.73;100.00
59767;BME280;46248;58.364;25.582;2022-12-18T16:24:15;101566.72;;;-2.86;100.00
59767;BME280;46248;58.364;25.582;2022-12-18T16:27:37;101597.00;;;-2.68;100.00
59767;BME280;46248;58.364;25.582;2022-12-18T16:31:04;101586.75;;;-2.67;100.00
59767;BME280;46248;58.364;25.582;2022-12-18T16:34:28;101592.72;;;-2.66;100.00
59767;BME280;46248;58.364;25.582;2022-12-18T16:37:54;101579.91;;;-2.68;100.00
59767;BME280;46248;58.364;25.582;2022-12-18T16:41:18;101591.25;;;-2.57;100.00
59767;BME280;46248;58.364;25.582;2022-12-18T16:44:52;101579.41;;;-2.50;100.00
59767;BME280;46248;58.364;25.582;2022-12-18T16:48:16;101577.78;;;-2.45;100.00
59767;BME280;46248;58.364;25.582;2022-12-18T16:51:38;101582.16;;;-2.39;100.00
59767;BME280;46248;58.364;25.582;2022-12-18T16:55:00;101579.69;;;-2.35;100.00
59767;BME280;46248;58.364;25.582;2022-12-18T16:58:21;101568.63;;;-2.31;100.00
59767;BME280;46248;58.364;25.582;2022-12-18T17:01:46;101564.63;;;-2.18;100.00
59767;BME280;46248;58.364;25.582;2022-12-18T17:05:10;101557.88;;;-2.10;100.00
59767;BME280;46248;58.364;25.582;2022-12-18T17:08:32;101551.19;;;-2.01;100.00
59767;BME280;46248;58.364;25.582;2022-12-18T17:11:54;101553.00;;;-1.96;100.00
59767;BME280;46248;58.364;25.582;2022-12-18T17:15:17;101542.88;;;-1.87;100.00
59767;BME280;46248;58.364;25.582;2022-12-18T17:18:39;101539.56;;;-1.79;100.00
59767;BME280;46248;58.364;25.582;2022-12-18T17:22:02;101513.69;;;-1.92;100.00
59767;BME280;46248;58.364;25.582;2022-12-18T17:25:24;101517.38;;;-1.76;100.00
59767;BME280;46248;58.364;25.582;2022-12-18T17:28:46;101530.44;;;-1.62;100.00
59767;BME280;46248;58.364;25.582;2022-12-18T17:32:08;101520.28;;;-1.51;100.00
59767;BME280;46248;58.364;25.582;2022-12-18T17:35:30;101515.28;;;-1.44;100.00
59767;BME280;46248;58.364;25.582;2022-12-18T17:38:56;101519.66;;;-1.36;100.00